Time;durP1;ratioP1;P1;durP2;ratioP2;P2;SDS_P1;SDS_P2;PMS_P1;PMS_P2;Temp;Humidity;BMP_temperature;BMP_pressure;BME280_temperature;BME280_humidity;BME280_pressure;Samples;Min_cycle;Max_cycle;Signal;HPM_P1;HPM_P2
2023/12/30 00:00:14;;;;;;;5.68;1.13;;;6.10;99.90;;;;;;4908059;28;20064;-47
2023/12/30 00:02:39;;;;;;;3.42;0.90;;;6.10;99.90;;;;;;4920513;28;22482;-50
2023/12/30 00:05:07;;;;;;;3.40;1.58;;;6.10;99.90;;;;;;4899571;28;20113;-45
2023/12/30 00:07:32;;;;;;;1.42;1.00;;;6.10;99.90;;;;;;4854549;28;20109;-47
2023/12/30 00:09:58;;;;;;;3.83;1.48;;;6.10;99.90;;;;;;4853777;28;20035;-52
2023/12/30 00:12:23;;;;;;;4.43;0.70;;;6.10;99.90;;;;;;4941959;28;20036;-51
2023/12/30 00:14:49;;;;;;;4.75;1.75;;;6.10;99.90;;;;;;4924390;28;20038;-52
2023/12/30 00:17:15;;;;;;;3.00;1.30;;;6.10;99.90;;;;;;4940154;28;20025;-58
2023/12/30 00:19:44;;;;;;;2.58;0.82;;;6.10;99.90;;;;;;4914984;28;20056;-48
2023/12/30 00:22:10;;;;;;;2.72;0.60;;;6.10;99.90;;;;;;4920425;28;20030;-51
2023/12/30 00:24:36;;;;;;;3.22;0.95;;;6.10;99.90;;;;;;4923551;28;20516;-49
2023/12/30 00:27:02;;;;;;;11.82;0.98;;;6.10;99.90;;;;;;4870245;28;20029;-58
2023/12/30 00:29:27;;;;;;;2.92;0.80;;;6.10;99.90;;;;;;4897154;28;20034;-49
2023/12/30 00:31:53;;;;;;;4.13;1.00;;;6.10;99.90;;;;;;4947534;28;20053;-48
2023/12/30 00:34:18;;;;;;;3.42;1.10;;;6.10;99.90;;;;;;4913177;28;20057;-47
2023/12/30 00:36:44;;;;;;;3.95;1.10;;;6.10;99.90;;;;;;4901907;28;20500;-58
2023/12/30 00:39:10;;;;;;;1.90;1.08;;;6.10;99.90;;;;;;4876407;28;20513;-46
2023/12/30 00:41:36;;;;;;;5.00;1.35;;;6.10;99.90;;;;;;4931991;28;22127;-46
2023/12/30 00:44:01;;;;;;;2.97;0.70;;;6.10;99.90;;;;;;4954078;28;20028;-48
2023/12/30 00:46:27;;;;;;;4.57;0.82;;;6.10;99.90;;;;;;4876578;28;20474;-49
2023/12/30 00:48:52;;;;;;;3.53;1.15;;;6.10;99.90;;;;;;4864428;28;20029;-58
2023/12/30 00:51:18;;;;;;;3.20;1.00;;;6.10;99.90;;;;;;4930382;28;22057;-45
2023/12/30 00:53:43;;;;;;;2.90;1.17;;;6.10;99.90;;;;;;4933942;28;22283;-50
2023/12/30 00:56:09;;;;;;;3.10;0.90;;;6.10;99.90;;;;;;4929535;28;20148;-50
2023/12/30 00:58:35;;;;;;;4.85;0.68;;;6.00;99.90;;;;;;4859539;28;20029;-52
2023/12/30 01:01:00;;;;;;;5.03;1.17;;;6.00;99.90;;;;;;4923443;28;20096;-52
2023/12/30 01:03:26;;;;;;;4.40;0.95;;;6.00;99.90;;;;;;4931044;28;20124;-52
2023/12/30 01:05:54;;;;;;;1.30;0.65;;;6.00;99.90;;;;;;4947524;28;20030;-49
2023/12/30 01:08:20;;;;;;;1.95;0.85;;;6.00;99.90;;;;;;4963279;28;20028;-56
2023/12/30 01:10:45;;;;;;;2.10;0.90;;;6.00;99.90;;;;;;4906161;28;20041;-52
2023/12/30 01:13:11;;;;;;;5.65;1.42;;;6.00;99.90;;;;;;4873877;28;20710;-49
2023/12/30 01:15:37;;;;;;;2.47;0.95;;;5.90;99.90;;;;;;4886314;28;20525;-51
2023/12/30 01:18:03;;;;;;;2.90;0.80;;;5.90;99.90;;;;;;4922214;28;20528;-57
2023/12/30 01:20:30;;;;;;;2.17;0.85;;;5.90;99.90;;;;;;4922165;28;20033;-52
2023/12/30 01:22:56;;;;;;;3.90;1.10;;;5.80;99.90;;;;;;4988887;28;20036;-53
2023/12/30 01:25:21;;;;;;;1.70;0.80;;;5.80;99.90;;;;;;4950180;28;20033;-47
2023/12/30 01:27:47;;;;;;;1.00;0.32;;;5.50;99.90;;;;;;5010840;28;20029;-53
2023/12/30 01:30:13;;;;;;;1.70;0.88;;;5.30;99.90;;;;;;4972672;28;20111;-51
2023/12/30 01:32:38;;;;;;;0.55;0.40;;;5.20;99.90;;;;;;4998080;28;20049;-48
2023/12/30 01:35:04;;;;;;;1.63;0.45;;;5.10;99.90;;;;;;4970194;28;21119;-52
2023/12/30 01:37:30;;;;;;;1.70;0.70;;;5.10;99.90;;;;;;4956737;28;20037;-47
2023/12/30 01:39:56;;;;;;;2.22;0.50;;;5.10;99.90;;;;;;5008277;28;20030;-51
2023/12/30 01:42:21;;;;;;;0.52;0.30;;;5.10;99.90;;;;;;5001050;28;20045;-54
2023/12/30 01:44:47;;;;;;;2.53;0.50;;;5.10;99.90;;;;;;5007055;28;20086;-50
2023/12/30 01:47:13;;;;;;;2.40;0.95;;;5.10;99.90;;;;;;4977111;28;20041;-46
2023/12/30 01:49:39;;;;;;;1.30;0.70;;;5.10;99.90;;;;;;4979883;28;20028;-50
2023/12/30 01:52:05;;;;;;;1.90;0.77;;;5.10;99.90;;;;;;4971138;28;20667;-51
2023/12/30 01:54:31;;;;;;;0.63;0.40;;;5.10;99.90;;;;;;4996226;28;20026;-51
2023/12/30 01:56:57;;;;;;;2.85;0.77;;;5.10;99.90;;;;;;4994155;28;20098;-53
2023/12/30 01:59:24;;;;;;;0.75;0.47;;;5.10;99.90;;;;;;4986989;28;20034;-54
2023/12/30 02:01:50;;;;;;;0.75;0.60;;;5.10;99.90;;;;;;4975123;28;20061;-52
2023/12/30 02:04:17;;;;;;;3.90;0.75;;;5.10;99.90;;;;;;4985690;28;20033;-52
2023/12/30 02:06:42;;;;;;;1.23;0.55;;;5.10;99.90;;;;;;4992685;28;20022;-55
2023/12/30 02:09:08;;;;;;;2.75;0.90;;;5.00;99.90;;;;;;4972023;28;20026;-53
2023/12/30 02:11:34;;;;;;;2.22;0.77;;;5.10;99.90;;;;;;4970490;28;20029;-52
2023/12/30 02:14:00;;;;;;;1.58;0.50;;;5.10;99.90;;;;;;4963622;28;20401;-50
2023/12/30 02:16:25;;;;;;;0.50;0.50;;;5.10;99.90;;;;;;4988627;28;20025;-50
2023/12/30 02:18:51;;;;;;;1.95;0.95;;;5.10;99.90;;;;;;4997603;28;20046;-49
2023/12/30 02:21:17;;;;;;;3.80;0.80;;;5.10;99.90;;;;;;4972395;28;20449;-59
2023/12/30 02:23:42;;;;;;;0.95;0.40;;;5.10;99.90;;;;;;4985903;28;20059;-51
2023/12/30 02:26:08;;;;;;;3.30;0.90;;;5.10;99.90;;;;;;4976586;28;20409;-52
2023/12/30 02:28:34;;;;;;;1.88;0.68;;;5.20;99.90;;;;;;4981051;28;20409;-53
2023/12/30 02:31:01;;;;;;;4.43;0.77;;;5.20;99.90;;;;;;4954425;28;20398;-59
2023/12/30 02:33:26;;;;;;;3.08;0.90;;;5.20;99.90;;;;;;4985992;28;20029;-49
2023/12/30 02:35:52;;;;;;;1.92;0.60;;;5.20;99.90;;;;;;4971561;28;20053;-51
2023/12/30 02:38:18;;;;;;;3.08;0.63;;;5.20;99.90;;;;;;4953271;28;20072;-51
2023/12/30 02:40:44;;;;;;;2.00;0.60;;;5.20;99.90;;;;;;4973823;28;20112;-56
2023/12/30 02:43:10;;;;;;;2.20;0.47;;;5.20;99.90;;;;;;4944081;28;21797;-54
2023/12/30 02:45:36;;;;;;;2.90;0.63;;;5.20;99.90;;;;;;4977738;28;20975;-52
2023/12/30 02:48:02;;;;;;;3.70;0.93;;;5.20;99.90;;;;;;4969681;28;20557;-53
2023/12/30 02:50:28;;;;;;;1.33;0.73;;;5.10;99.90;;;;;;4959264;28;20516;-51
2023/12/30 02:52:53;;;;;;;4.22;0.90;;;5.10;99.90;;;;;;4945853;28;20022;-53
2023/12/30 02:55:19;;;;;;;4.03;1.00;;;5.10;99.90;;;;;;4954332;28;21089;-55
2023/12/30 02:57:44;;;;;;;2.95;0.50;;;5.10;99.90;;;;;;4986957;28;20069;-51
2023/12/30 03:00:11;;;;;;;5.80;0.77;;;5.10;99.90;;;;;;4985912;28;20468;-49
2023/12/30 03:02:37;;;;;;;4.10;0.60;;;5.10;99.90;;;;;;4944648;28;20033;-51
2023/12/30 03:05:03;;;;;;;2.47;0.65;;;5.10;99.90;;;;;;4957295;28;21148;-49
2023/12/30 03:07:28;;;;;;;5.43;1.00;;;5.00;99.90;;;;;;4973130;28;20540;-51
2023/12/30 03:09:54;;;;;;;5.18;1.20;;;5.00;99.90;;;;;;4953554;28;20557;-58
2023/12/30 03:12:20;;;;;;;3.05;0.82;;;5.00;99.90;;;;;;4952377;28;20021;-50
2023/12/30 03:14:46;;;;;;;3.00;0.70;;;5.00;99.90;;;;;;4968062;28;20057;-52
2023/12/30 03:17:11;;;;;;;5.25;0.93;;;5.00;99.90;;;;;;4930428;28;20536;-52
2023/12/30 03:19:37;;;;;;;2.20;0.55;;;5.00;99.90;;;;;;4966569;28;20053;-53
2023/12/30 03:22:02;;;;;;;2.25;0.70;;;5.00;99.90;;;;;;4956008;28;20088;-59
2023/12/30 03:24:28;;;;;;;6.28;0.77;;;4.90;99.90;;;;;;4975685;28;20037;-52
2023/12/30 03:26:53;;;;;;;2.03;0.60;;;5.00;99.90;;;;;;4946326;28;20030;-52
2023/12/30 03:29:20;;;;;;;6.72;0.82;;;5.00;99.90;;;;;;4946763;28;20076;-49
2023/12/30 03:31:49;;;;;;;8.68;1.23;;;5.00;99.90;;;;;;4943031;28;20014;-59
2023/12/30 03:34:14;;;;;;;3.13;0.70;;;5.00;99.90;;;;;;4964185;28;20469;-50
2023/12/30 03:36:40;;;;;;;1.08;0.55;;;5.00;99.90;;;;;;4964267;28;20088;-52
2023/12/30 03:39:05;;;;;;;4.18;1.25;;;5.10;99.90;;;;;;4957594;28;20034;-54
2023/12/30 03:41:31;;;;;;;2.90;0.93;;;5.10;99.90;;;;;;4920854;28;20623;-50
2023/12/30 03:43:56;;;;;;;4.88;1.38;;;5.10;99.90;;;;;;4923679;28;20017;-53
2023/12/30 03:46:22;;;;;;;1.63;0.70;;;5.10;99.90;;;;;;4962585;28;21816;-53
2023/12/30 03:48:47;;;;;;;3.78;0.60;;;5.10;99.90;;;;;;4969905;28;20025;-53
2023/12/30 03:51:13;;;;;;;2.33;0.90;;;5.00;99.90;;;;;;4960322;28;20469;-53
2023/12/30 03:53:39;;;;;;;5.00;0.95;;;5.10;99.90;;;;;;4929261;28;20071;-48
2023/12/30 03:56:05;;;;;;;1.70;0.60;;;5.00;99.90;;;;;;4924637;28;21408;-49
2023/12/30 03:58:30;;;;;;;1.67;0.47;;;5.00;99.90;;;;;;4956514;28;20025;-51
2023/12/30 04:00:56;;;;;;;4.43;1.08;;;5.00;99.90;;;;;;4963189;28;20088;-56
2023/12/30 04:03:22;;;;;;;2.17;1.05;;;5.10;99.90;;;;;;4971554;28;20076;-51
2023/12/30 04:05:47;;;;;;;2.35;0.60;;;5.00;99.90;;;;;;4974366;28;20032;-50
2023/12/30 04:08:13;;;;;;;11.38;1.20;;;5.00;99.90;;;;;;4925134;28;20038;-52
2023/12/30 04:10:38;;;;;;;4.50;0.95;;;5.10;99.90;;;;;;4955162;28;20083;-52
2023/12/30 04:13:04;;;;;;;3.63;0.82;;;5.10;99.90;;;;;;4937743;28;20021;-59
2023/12/30 04:15:29;;;;;;;4.93;1.02;;;5.20;99.90;;;;;;4937016;28;20029;-48
2023/12/30 04:17:55;;;;;;;1.85;0.57;;;5.20;99.90;;;;;;4959561;28;20034;-47
2023/12/30 04:20:20;;;;;;;2.95;0.77;;;5.30;99.90;;;;;;4916404;28;20030;-53
2023/12/30 04:22:46;;;;;;;3.58;1.35;;;5.30;99.90;;;;;;4944795;28;20044;-56
2023/12/30 04:25:12;;;;;;;3.22;1.10;;;5.30;99.90;;;;;;4924548;28;20060;-48
2023/12/30 04:27:37;;;;;;;4.95;0.70;;;5.20;99.90;;;;;;4954747;28;20700;-48
2023/12/30 04:30:03;;;;;;;3.75;1.13;;;5.10;99.90;;;;;;4941787;28;20075;-50
2023/12/30 04:32:29;;;;;;;3.58;0.80;;;5.10;99.90;;;;;;4941708;28;20085;-50
2023/12/30 04:34:55;;;;;;;3.78;0.70;;;5.00;99.90;;;;;;4918022;28;20605;-50
2023/12/30 04:37:20;;;;;;;3.20;0.85;;;5.00;99.90;;;;;;4961735;28;20377;-53
2023/12/30 04:39:46;;;;;;;7.95;0.90;;;5.00;99.90;;;;;;4951520;28;20097;-55
2023/12/30 04:42:12;;;;;;;4.30;0.68;;;4.90;99.90;;;;;;4938162;28;20033;-49
2023/12/30 04:44:38;;;;;;;4.20;1.15;;;4.90;99.90;;;;;;4955658;28;20041;-51
2023/12/30 04:47:04;;;;;;;5.60;0.80;;;4.90;99.90;;;;;;4903727;28;21596;-58
2023/12/30 04:49:29;;;;;;;3.78;0.70;;;4.90;99.90;;;;;;4942782;28;20053;-50
2023/12/30 04:51:55;;;;;;;2.08;0.80;;;4.90;99.90;;;;;;4943862;28;20036;-50
2023/12/30 04:54:21;;;;;;;3.40;0.95;;;4.90;99.90;;;;;;4946618;28;20021;-59
2023/12/30 04:56:46;;;;;;;6.22;0.90;;;4.90;99.90;;;;;;4932658;28;20421;-52
2023/12/30 04:59:12;;;;;;;5.93;0.98;;;4.90;99.90;;;;;;4903421;28;22095;-57
2023/12/30 05:01:37;;;;;;;3.40;1.15;;;4.90;99.90;;;;;;4958231;28;20407;-47
2023/12/30 05:04:03;;;;;;;1.45;0.80;;;4.90;99.90;;;;;;4912077;28;20037;-58
2023/12/30 05:06:29;;;;;;;4.47;1.08;;;4.90;99.90;;;;;;4960281;28;20038;-53
2023/12/30 05:08:56;;;;;;;2.35;1.02;;;4.90;99.90;;;;;;4964550;28;20479;-51
2023/12/30 05:11:23;;;;;;;3.10;0.80;;;4.90;99.90;;;;;;4917520;28;20490;-49
2023/12/30 05:13:49;;;;;;;3.05;1.15;;;4.90;99.90;;;;;;4911258;28;20021;-51
2023/12/30 05:16:15;;;;;;;5.13;1.67;;;4.90;99.90;;;;;;4939797;28;20431;-51
2023/12/30 05:18:40;;;;;;;6.65;1.40;;;5.00;99.90;;;;;;4933452;28;21601;-52
2023/12/30 05:21:13;;;;;;;4.28;0.88;;;4.90;99.90;;;;;;4956667;28;20029;-50
2023/12/30 05:23:38;;;;;;;3.45;0.90;;;4.90;99.90;;;;;;4889054;28;20424;-53
2023/12/30 05:26:04;;;;;;;1.90;1.13;;;5.00;99.90;;;;;;4898480;28;21620;-50
2023/12/30 05:28:29;;;;;;;3.33;0.90;;;4.90;99.90;;;;;;4932953;28;20029;-49
2023/12/30 05:30:55;;;;;;;2.67;0.95;;;5.00;99.90;;;;;;4954558;28;20124;-49
2023/12/30 05:33:20;;;;;;;3.10;0.77;;;4.90;99.90;;;;;;4934340;28;20018;-58
2023/12/30 05:35:46;;;;;;;5.53;1.08;;;5.00;99.90;;;;;;4928117;28;20057;-51
2023/12/30 05:38:12;;;;;;;3.75;1.27;;;4.90;99.90;;;;;;4881334;28;21477;-52
2023/12/30 05:40:39;;;;;;;2.03;1.20;;;5.00;99.90;;;;;;4932511;28;20529;-53
2023/12/30 05:43:05;;;;;;;8.63;1.25;;;5.00;99.90;;;;;;4893849;28;20343;-58
2023/12/30 05:45:31;;;;;;;2.63;0.93;;;5.00;99.90;;;;;;4925372;28;20029;-49
2023/12/30 05:47:57;;;;;;;5.60;1.23;;;5.10;99.90;;;;;;4926322;28;20025;-49
2023/12/30 05:50:22;;;;;;;9.75;2.22;;;5.10;99.90;;;;;;4880082;28;20033;-50
2023/12/30 05:52:48;;;;;;;4.32;1.30;;;5.10;99.90;;;;;;4899515;28;20124;-59
2023/12/30 05:55:14;;;;;;;5.88;1.23;;;5.10;99.90;;;;;;4925938;28;20029;-53
2023/12/30 05:57:39;;;;;;;3.17;1.38;;;5.10;99.90;;;;;;4944724;28;22896;-49
2023/12/30 06:00:07;;;;;;;2.58;1.15;;;5.10;99.90;;;;;;4938497;28;20037;-51
2023/12/30 06:02:33;;;;;;;1.95;0.95;;;5.00;99.90;;;;;;4864163;28;20034;-53
2023/12/30 06:04:59;;;;;;;3.17;1.25;;;5.10;99.90;;;;;;4922935;28;20095;-50
2023/12/30 06:07:24;;;;;;;5.40;1.35;;;5.10;99.90;;;;;;4923862;28;21345;-51
2023/12/30 06:09:50;;;;;;;3.30;1.25;;;5.10;99.90;;;;;;4959848;28;20038;-57
2023/12/30 06:12:15;;;;;;;6.07;1.42;;;5.10;99.90;;;;;;4902738;28;20032;-60
2023/12/30 06:14:41;;;;;;;10.35;1.38;;;5.10;99.90;;;;;;4893736;28;20061;-49
2023/12/30 06:17:07;;;;;;;6.15;1.55;;;5.10;99.90;;;;;;4859298;28;20045;-50
2023/12/30 06:19:33;;;;;;;6.40;1.42;;;5.10;99.90;;;;;;4921151;28;20672;-48
2023/12/30 06:21:59;;;;;;;5.38;1.48;;;5.10;99.90;;;;;;4936990;28;20524;-58
2023/12/30 06:24:26;;;;;;;3.40;0.93;;;5.10;99.90;;;;;;4895152;28;20026;-59
2023/12/30 06:26:52;;;;;;;2.78;1.30;;;5.10;99.90;;;;;;4929463;28;20083;-48
2023/12/30 06:29:19;;;;;;;4.13;1.48;;;5.10;99.90;;;;;;4881795;28;20026;-49
2023/12/30 06:31:45;;;;;;;5.40;1.27;;;5.10;99.90;;;;;;4917895;28;20013;-52
2023/12/30 06:34:11;;;;;;;3.50;1.05;;;5.10;99.90;;;;;;4911386;28;20040;-56
2023/12/30 06:36:37;;;;;;;9.20;1.50;;;5.10;99.90;;;;;;4927498;28;21568;-50
2023/12/30 06:39:02;;;;;;;5.68;1.25;;;5.10;99.90;;;;;;4958469;28;20590;-52
2023/12/30 06:41:28;;;;;;;2.40;1.25;;;5.10;99.90;;;;;;4862752;28;20061;-48
2023/12/30 06:43:53;;;;;;;4.80;1.25;;;5.10;99.90;;;;;;4862953;28;20440;-59
2023/12/30 06:46:20;;;;;;;6.22;1.45;;;5.20;99.90;;;;;;4905210;28;21738;-53
2023/12/30 06:48:48;;;;;;;6.43;1.63;;;5.10;99.90;;;;;;4962723;28;21615;-51
2023/12/30 06:51:14;;;;;;;6.35;1.25;;;5.10;99.90;;;;;;4898016;28;20032;-59
2023/12/30 06:53:39;;;;;;;8.75;1.80;;;5.10;99.90;;;;;;4860851;28;20029;-52
2023/12/30 06:56:08;;;;;;;7.90;1.73;;;5.20;99.90;;;;;;4877124;28;21505;-56
2023/12/30 06:58:35;;;;;;;7.95;1.58;;;5.20;99.90;;;;;;4907647;28;20037;-52
2023/12/30 07:01:00;;;;;;;6.03;1.30;;;5.20;99.90;;;;;;4926790;28;20029;-59
2023/12/30 07:03:26;;;;;;;8.27;1.90;;;5.20;99.90;;;;;;4908188;28;20098;-59
2023/12/30 07:05:52;;;;;;;2.92;1.35;;;5.10;99.90;;;;;;4898355;28;20053;-52
2023/12/30 07:08:24;;;;;;;6.20;1.15;;;5.10;99.90;;;;;;4899565;28;20030;-51
2023/12/30 07:10:49;;;;;;;3.83;1.10;;;5.20;99.90;;;;;;4892843;28;20029;-59
2023/12/30 07:13:15;;;;;;;2.67;1.08;;;5.20;99.90;;;;;;4901065;28;20018;-50
2023/12/30 07:15:40;;;;;;;4.30;1.10;;;5.20;99.90;;;;;;4952193;28;21731;-50
2023/12/30 07:18:06;;;;;;;4.75;1.17;;;5.20;99.90;;;;;;4955880;28;20025;-50
2023/12/30 07:20:32;;;;;;;6.65;1.13;;;5.10;99.90;;;;;;4895739;28;20030;-51
2023/12/30 07:22:58;;;;;;;4.97;1.48;;;5.10;99.90;;;;;;4888783;28;20156;-55
2023/12/30 07:25:23;;;;;;;3.85;1.30;;;5.10;99.90;;;;;;4897601;28;21542;-50
2023/12/30 07:27:49;;;;;;;4.03;1.10;;;5.20;99.90;;;;;;4942387;28;20541;-50
2023/12/30 07:30:15;;;;;;;2.40;0.85;;;5.10;99.90;;;;;;4948560;28;20017;-58
2023/12/30 07:32:40;;;;;;;3.58;1.00;;;5.20;99.90;;;;;;4883248;28;20022;-51
2023/12/30 07:35:07;;;;;;;3.95;1.30;;;5.10;99.90;;;;;;4891599;28;20390;-52
2023/12/30 07:37:33;;;;;;;3.88;1.23;;;5.10;99.90;;;;;;4893341;28;21896;-52
2023/12/30 07:40:00;;;;;;;2.42;0.90;;;5.10;99.90;;;;;;4954097;28;20029;-48
2023/12/30 07:42:25;;;;;;;6.63;0.90;;;5.10;99.90;;;;;;4914248;28;20030;-59
2023/12/30 07:44:52;;;;;;;2.28;0.43;;;5.00;99.90;;;;;;4985383;28;20029;-49
2023/12/30 07:47:18;;;;;;;2.30;0.73;;;5.00;99.90;;;;;;4891008;28;20490;-52
2023/12/30 07:49:44;;;;;;;4.85;0.73;;;5.00;99.90;;;;;;4889224;28;20021;-52
2023/12/30 07:52:10;;;;;;;3.75;1.05;;;5.00;99.90;;;;;;5009807;28;20057;-50
2023/12/30 07:54:35;;;;;;;1.40;0.40;;;5.00;99.90;;;;;;5014386;28;20545;-51
2023/12/30 07:57:01;;;;;;;5.75;1.48;;;5.00;99.90;;;;;;5008809;28;20037;-51
2023/12/30 07:59:27;;;;;;;2.83;0.98;;;5.00;99.90;;;;;;5006817;28;20037;-50
2023/12/30 08:01:56;;;;;;;2.35;0.73;;;4.90;99.90;;;;;;5007703;28;20025;-48
2023/12/30 08:04:22;;;;;;;1.02;0.70;;;4.90;99.90;;;;;;4993621;28;20414;-48
2023/12/30 08:06:48;;;;;;;5.18;1.02;;;4.90;99.90;;;;;;5001541;28;20025;-50
2023/12/30 08:09:14;;;;;;;5.80;0.80;;;4.90;99.90;;;;;;4986510;28;20032;-52
2023/12/30 08:11:41;;;;;;;2.45;1.00;;;4.90;99.90;;;;;;4992860;28;20108;-54
2023/12/30 08:14:07;;;;;;;2.88;1.05;;;4.90;99.90;;;;;;4980402;28;20014;-51
2023/12/30 08:16:35;;;;;;;4.80;1.50;;;5.00;99.90;;;;;;5003883;28;20049;-53
2023/12/30 08:19:02;;;;;;;2.08;1.02;;;5.00;99.90;;;;;;5001900;28;20025;-54
2023/12/30 08:21:27;;;;;;;1.35;0.73;;;4.90;99.90;;;;;;4991304;28;20201;-54
2023/12/30 08:23:54;;;;;;;1.25;0.60;;;4.70;99.90;;;;;;4984897;28;20044;-52
2023/12/30 08:26:20;;;;;;;1.58;0.45;;;4.60;99.90;;;;;;4993572;28;21510;-52
2023/12/30 08:28:46;;;;;;;2.17;0.60;;;4.60;99.90;;;;;;4995978;28;20025;-54
2023/12/30 08:31:12;;;;;;;1.52;0.70;;;4.50;99.90;;;;;;4999053;28;20018;-51
2023/12/30 08:33:38;;;;;;;1.73;0.52;;;4.40;99.90;;;;;;4979897;28;20013;-52
2023/12/30 08:36:04;;;;;;;3.80;1.08;;;4.40;99.90;;;;;;4990349;28;20175;-49
2023/12/30 08:38:31;;;;;;;2.65;0.77;;;4.40;99.90;;;;;;4989607;28;20033;-51
2023/12/30 08:41:01;;;;;;;1.80;0.20;;;4.40;99.90;;;;;;4987902;28;20494;-54
2023/12/30 08:43:26;;;;;;;1.38;0.25;;;4.40;99.90;;;;;;4991540;28;20112;-50
2023/12/30 08:45:52;;;;;;;1.55;0.30;;;4.40;99.90;;;;;;4992680;28;20155;-54
2023/12/30 08:48:18;;;;;;;1.13;0.38;;;4.40;99.90;;;;;;4977721;28;20108;-53
2023/12/30 08:50:44;;;;;;;0.20;0.20;;;4.40;99.90;;;;;;4970580;28;20029;-59
2023/12/30 08:53:11;;;;;;;0.35;0.13;;;4.40;99.90;;;;;;4982167;28;20031;-52
2023/12/30 08:55:36;;;;;;;1.75;0.40;;;4.40;99.90;;;;;;5000976;28;22410;-52
2023/12/30 08:58:02;;;;;;;0.32;0.10;;;4.40;99.90;;;;;;4985716;28;20040;-49
2023/12/30 09:00:28;;;;;;;1.63;0.20;;;4.40;99.90;;;;;;4978648;28;20030;-48
2023/12/30 09:02:55;;;;;;;0.75;0.30;;;4.40;99.90;;;;;;4959699;28;20034;-55
2023/12/30 09:05:21;;;;;;;0.30;0.30;;;4.40;99.90;;;;;;4982531;28;22391;-48
2023/12/30 09:07:48;;;;;;;1.38;0.60;;;4.40;99.90;;;;;;4999936;28;20164;-50
2023/12/30 09:10:16;;;;;;;3.42;0.93;;;4.50;99.90;;;;;;4982495;28;20030;-62
2023/12/30 09:12:42;;;;;;;3.10;0.57;;;4.50;99.90;;;;;;4980766;28;20030;-51
2023/12/30 09:15:07;;;;;;;3.40;0.70;;;4.50;99.90;;;;;;4967664;28;20037;-50
2023/12/30 09:17:33;;;;;;;1.58;0.38;;;4.50;99.90;;;;;;4977125;28;20037;-55
2023/12/30 09:19:59;;;;;;;1.15;0.50;;;4.50;99.90;;;;;;4990066;28;20080;-54
2023/12/30 09:22:24;;;;;;;4.28;0.80;;;4.50;99.90;;;;;;4975239;28;20086;-52
2023/12/30 09:24:50;;;;;;;0.75;0.40;;;4.50;99.90;;;;;;4981473;28;20045;-56
2023/12/30 09:27:15;;;;;;;2.15;0.60;;;4.50;99.90;;;;;;4957538;28;20049;-50
2023/12/30 09:29:41;;;;;;;0.90;0.70;;;4.50;99.90;;;;;;4969724;28;20017;-52
2023/12/30 09:32:07;;;;;;;2.47;0.70;;;4.50;99.90;;;;;;4961842;28;20021;-48
2023/12/30 09:34:32;;;;;;;1.35;0.40;;;4.50;99.90;;;;;;4968962;28;20172;-49
2023/12/30 09:36:58;;;;;;;1.75;0.40;;;4.50;99.90;;;;;;4982925;28;20542;-53
2023/12/30 09:39:24;;;;;;;3.70;0.65;;;4.50;99.90;;;;;;4961976;28;20099;-52
2023/12/30 09:41:49;;;;;;;0.40;0.40;;;4.50;99.90;;;;;;4950261;28;20038;-50
2023/12/30 09:44:16;;;;;;;1.77;0.47;;;4.50;99.90;;;;;;4970008;28;20025;-55
2023/12/30 09:46:43;;;;;;;2.97;0.80;;;4.60;99.90;;;;;;4990361;28;20033;-52
2023/12/30 09:49:09;;;;;;;1.33;0.52;;;4.60;99.90;;;;;;4988671;28;20032;-49
2023/12/30 09:51:35;;;;;;;2.75;0.50;;;4.60;99.90;;;;;;4959999;28;20026;-53
2023/12/30 09:54:00;;;;;;;2.53;0.63;;;4.60;99.90;;;;;;4961370;28;20493;-52
2023/12/30 09:56:26;;;;;;;2.80;0.80;;;4.60;99.90;;;;;;4962760;28;20025;-50
2023/12/30 09:58:53;;;;;;;3.20;0.93;;;4.60;99.90;;;;;;4984936;28;20064;-51
2023/12/30 10:01:20;;;;;;;5.18;1.42;;;4.60;99.90;;;;;;4950215;28;20510;-59
2023/12/30 10:03:46;;;;;;;1.65;1.10;;;4.60;99.90;;;;;;4956919;28;21748;-54
2023/12/30 10:06:14;;;;;;;3.75;1.35;;;4.60;99.90;;;;;;4938005;28;20052;-48
2023/12/30 10:08:43;;;;;;;3.25;1.15;;;4.70;99.90;;;;;;4956828;28;20025;-52
2023/12/30 10:11:09;;;;;;;2.05;1.20;;;4.70;99.90;;;;;;4946455;28;20033;-51
2023/12/30 10:13:38;;;;;;;3.75;1.05;;;4.70;99.90;;;;;;4974593;28;21501;-51
2023/12/30 10:16:05;;;;;;;4.32;1.42;;;4.80;99.90;;;;;;4961032;28;20646;-51
2023/12/30 10:18:40;;;;;;;4.90;1.15;;;4.80;99.90;;;;;;4943006;28;20030;-51
2023/12/30 10:21:07;;;;;;;5.75;1.13;;;4.80;99.90;;;;;;4926236;28;22407;-50
2023/12/30 10:23:34;;;;;;;4.65;0.85;;;4.80;99.90;;;;;;4967496;28;20075;-50
2023/12/30 10:26:02;;;;;;;2.10;0.82;;;4.80;99.90;;;;;;4976926;28;20073;-60
2023/12/30 10:28:27;;;;;;;6.70;1.35;;;4.80;99.90;;;;;;4963269;28;20022;-50
2023/12/30 10:31:06;;;;;;;5.75;0.90;;;4.80;99.90;;;;;;4957815;28;20513;-51
2023/12/30 10:33:33;;;;;;;2.30;1.17;;;4.90;99.90;;;;;;4927158;28;20145;-54
2023/12/30 10:35:59;;;;;;;4.18;1.30;;;4.90;99.90;;;;;;4934903;28;20029;-50
2023/12/30 10:38:26;;;;;;;2.92;1.13;;;4.90;99.90;;;;;;4959190;28;20063;-48
2023/12/30 10:40:51;;;;;;;4.32;1.25;;;4.90;99.90;;;;;;4953252;28;20040;-51
2023/12/30 10:43:19;;;;;;;2.40;0.98;;;5.00;99.90;;;;;;4950212;28;20033;-60
2023/12/30 10:46:00;;;;;;;1.88;1.13;;;4.90;99.90;;;;;;4955348;28;20045;-49
2023/12/30 10:48:31;;;;;;;4.78;0.70;;;5.00;99.90;;;;;;4945031;28;20022;-50
2023/12/30 10:50:58;;;;;;;1.42;0.85;;;5.00;99.90;;;;;;4913896;28;20056;-50
2023/12/30 10:53:30;;;;;;;1.85;0.65;;;5.00;99.90;;;;;;4953496;28;20033;-48
2023/12/30 10:56:00;;;;;;;1.30;0.82;;;5.00;99.90;;;;;;4948970;28;20044;-47
2023/12/30 10:58:26;;;;;;;1.95;0.77;;;5.00;99.90;;;;;;4935086;28;20029;-53
2023/12/30 11:01:00;;;;;;;2.20;0.73;;;5.00;99.90;;;;;;4954494;28;20037;-47
2023/12/30 11:03:27;;;;;;;1.48;0.77;;;5.00;99.90;;;;;;4906891;28;20062;-50
2023/12/30 11:06:07;;;;;;;0.57;0.40;;;5.00;99.90;;;;;;4905807;28;20579;-52
2023/12/30 11:08:33;;;;;;;3.42;0.85;;;5.00;99.90;;;;;;4945971;28;20636;-50
2023/12/30 11:11:02;;;;;;;2.75;0.40;;;5.00;99.90;;;;;;4944900;28;20080;-52
2023/12/30 11:13:35;;;;;;;2.30;0.57;;;5.00;99.90;;;;;;4926651;28;20026;-52
2023/12/30 11:16:13;;;;;;;1.95;0.60;;;5.00;99.90;;;;;;4941308;28;20026;-52
2023/12/30 11:18:55;;;;;;;2.15;0.70;;;5.00;99.90;;;;;;4900513;28;20615;-55
2023/12/30 11:21:46;;;;;;;2.92;0.70;;;4.90;99.90;;;;;;4911773;28;20025;-48
2023/12/30 11:24:18;;;;;;;2.28;0.50;;;4.90;99.90;;;;;;4929259;28;20025;-48
2023/12/30 11:26:45;;;;;;;4.85;0.63;;;4.90;99.90;;;;;;4935892;28;20026;-60
2023/12/30 11:29:14;;;;;;;1.58;0.55;;;4.90;99.90;;;;;;4922844;28;20030;-50
2023/12/30 11:31:42;;;;;;;1.80;0.60;;;4.90;99.90;;;;;;4933365;28;20029;-50
2023/12/30 11:34:09;;;;;;;0.52;0.40;;;4.90;99.90;;;;;;4948075;28;20022;-47
2023/12/30 11:36:36;;;;;;;2.17;0.80;;;5.00;99.90;;;;;;4886150;28;20098;-50
2023/12/30 11:39:03;;;;;;;2.22;0.65;;;5.00;99.90;;;;;;4902057;28;20168;-49
2023/12/30 11:41:29;;;;;;;1.00;0.70;;;5.00;99.90;;;;;;4938403;28;20064;-47
2023/12/30 11:44:02;;;;;;;1.35;0.98;;;5.10;99.90;;;;;;4928184;28;20022;-48
2023/12/30 11:46:28;;;;;;;3.75;0.90;;;5.10;99.90;;;;;;4922386;28;20993;-49
2023/12/30 11:48:54;;;;;;;1.55;0.95;;;5.20;99.90;;;;;;4929082;28;20032;-49
2023/12/30 11:51:22;;;;;;;3.80;1.00;;;5.20;99.90;;;;;;4920982;28;20021;-55
2023/12/30 11:53:47;;;;;;;2.03;1.00;;;5.30;99.90;;;;;;4905193;28;20112;-60
2023/12/30 11:56:15;;;;;;;1.92;1.02;;;5.30;99.90;;;;;;4890236;28;20481;-51
2023/12/30 11:58:41;;;;;;;3.70;1.52;;;5.40;99.90;;;;;;4937850;28;21032;-54
2023/12/30 12:01:07;;;;;;;3.75;1.08;;;5.40;99.90;;;;;;4921190;28;20056;-51
2023/12/30 12:03:32;;;;;;;3.95;1.00;;;5.40;99.90;;;;;;4896890;28;20108;-48
2023/12/30 12:05:58;;;;;;;3.03;0.90;;;5.50;99.90;;;;;;4915949;28;20036;-45
2023/12/30 12:08:28;;;;;;;4.78;1.50;;;5.50;99.90;;;;;;4931179;28;21499;-46
2023/12/30 12:10:53;;;;;;;11.95;1.92;;;5.50;99.90;;;;;;4956282;28;20490;-47
2023/12/30 12:13:23;;;;;;;3.22;1.27;;;5.50;99.90;;;;;;4920159;28;20033;-58
2023/12/30 12:15:49;;;;;;;5.85;1.08;;;5.60;99.90;;;;;;4940685;28;20037;-45
2023/12/30 12:18:15;;;;;;;4.05;1.20;;;5.60;99.90;;;;;;4907983;28;20167;-50
2023/12/30 12:20:45;;;;;;;5.38;1.00;;;5.60;99.90;;;;;;5020923;28;20717;-49
2023/12/30 12:23:11;;;;;;;4.63;0.93;;;5.60;99.90;;;;;;5022120;28;20056;-50
2023/12/30 12:25:37;;;;;;;8.20;1.73;;;5.60;99.90;;;;;;5018394;28;20037;-49
2023/12/30 12:28:13;;;;;;;3.35;1.52;;;5.60;99.90;;;;;;5018115;28;20034;-48
2023/12/30 12:30:39;;;;;;;7.13;1.67;;;5.70;99.90;;;;;;5017362;28;20033;-49
2023/12/30 12:33:05;;;;;;;2.20;1.40;;;5.70;99.90;;;;;;5019315;28;20441;-47
2023/12/30 12:35:31;;;;;;;5.45;1.20;;;5.70;99.90;;;;;;5015123;28;20216;-48
2023/12/30 12:38:00;;;;;;;3.45;1.63;;;5.70;99.90;;;;;;5013631;28;20113;-49
2023/12/30 12:40:26;;;;;;;9.07;2.47;;;5.60;99.90;;;;;;5015544;28;20121;-48
2023/12/30 12:42:52;;;;;;;8.23;2.72;;;5.70;99.90;;;;;;5018249;28;20453;-51
2023/12/30 12:45:18;;;;;;;9.05;4.78;;;5.70;99.90;;;;;;5014712;28;20026;-45
2023/12/30 12:47:44;;;;;;;5.40;2.58;;;5.70;99.90;;;;;;5015225;28;20026;-56
2023/12/30 12:50:10;;;;;;;3.72;1.88;;;5.70;99.90;;;;;;5015809;28;20041;-48
2023/12/30 12:52:35;;;;;;;7.45;2.92;;;5.70;99.90;;;;;;5018151;28;20045;-46